sensor_id;sensor_type;location;lat;lon;timestamp;P1;durP1;ratioP1;P2;durP2;ratioP2
22223;SDS011;11281;52.194;21.006;2022-11-15T00:02:21;23.20;;;12.18;;
22223;SDS011;11281;52.194;21.006;2022-11-15T00:06:42;20.27;;;10.88;;
22223;SDS011;11281;52.194;21.006;2022-11-15T00:11:04;25.92;;;12.10;;
22223;SDS011;11281;52.194;21.006;2022-11-15T00:15:26;27.05;;;13.07;;
22223;SDS011;11281;52.194;21.006;2022-11-15T00:19:47;18.42;;;11.50;;
22223;SDS011;11281;52.194;21.006;2022-11-15T00:24:10;19.75;;;11.13;;
22223;SDS011;11281;52.194;21.006;2022-11-15T00:28:32;17.20;;;10.35;;
22223;SDS011;11281;52.194;21.006;2022-11-15T00:32:54;21.75;;;11.50;;
22223;SDS011;11281;52.194;21.006;2022-11-15T00:37:15;18.05;;;10.52;;
22223;SDS011;11281;52.194;21.006;2022-11-15T00:41:37;17.08;;;10.18;;
22223;SDS011;11281;52.194;21.006;2022-11-15T00:45:59;18.48;;;11.63;;
22223;SDS011;11281;52.194;21.006;2022-11-15T00:50:21;19.45;;;10.32;;
22223;SDS011;11281;52.194;21.006;2022-11-15T00:54:42;19.50;;;10.98;;
22223;SDS011;11281;52.194;21.006;2022-11-15T00:59:04;15.55;;;10.13;;
22223;SDS011;11281;52.194;21.006;2022-11-15T01:03:26;19.08;;;11.60;;
22223;SDS011;11281;52.194;21.006;2022-11-15T01:07:51;16.13;;;10.63;;
22223;SDS011;11281;52.194;21.006;2022-11-15T01:12:14;16.88;;;10.48;;
22223;SDS011;11281;52.194;21.006;2022-11-15T01:16:35;18.75;;;11.20;;
22223;SDS011;11281;52.194;21.006;2022-11-15T01:20:57;17.52;;;10.68;;
22223;SDS011;11281;52.194;21.006;2022-11-15T01:25:19;18.50;;;9.85;;
22223;SDS011;11281;52.194;21.006;2022-11-15T01:29:41;16.90;;;9.75;;
22223;SDS011;11281;52.194;21.006;2022-11-15T01:34:02;22.50;;;11.32;;
22223;SDS011;11281;52.194;21.006;2022-11-15T01:38:24;17.73;;;9.10;;
22223;SDS011;11281;52.194;21.006;2022-11-15T01:42:46;18.50;;;9.65;;
22223;SDS011;11281;52.194;21.006;2022-11-15T01:47:09;22.58;;;10.20;;
22223;SDS011;11281;52.194;21.006;2022-11-15T01:51:34;16.77;;;10.15;;
22223;SDS011;11281;52.194;21.006;2022-11-15T01:55:56;18.02;;;9.95;;
22223;SDS011;11281;52.194;21.006;2022-11-15T02:00:19;20.90;;;11.75;;
22223;SDS011;11281;52.194;21.006;2022-11-15T02:04:45;19.05;;;10.10;;
22223;SDS011;11281;52.194;21.006;2022-11-15T02:09:08;19.65;;;10.90;;
22223;SDS011;11281;52.194;21.006;2022-11-15T02:13:30;20.63;;;10.55;;
22223;SDS011;11281;52.194;21.006;2022-11-15T02:32:18;20.33;;;12.18;;
22223;SDS011;11281;52.194;21.006;2022-11-15T02:36:52;27.08;;;12.15;;
22223;SDS011;11281;52.194;21.006;2022-11-15T02:41:45;24.77;;;12.70;;
22223;SDS011;11281;52.194;21.006;2022-11-15T02:46:38;32.03;;;14.18;;
22223;SDS011;11281;52.194;21.006;2022-11-15T02:51:33;23.63;;;11.88;;
22223;SDS011;11281;52.194;21.006;2022-11-15T02:55:55;30.80;;;13.70;;
22223;SDS011;11281;52.194;21.006;2022-11-15T03:00:19;27.08;;;13.68;;
22223;SDS011;11281;52.194;21.006;2022-11-15T03:09:42;29.17;;;14.52;;
22223;SDS011;11281;52.194;21.006;2022-11-15T03:14:35;33.88;;;14.13;;
22223;SDS011;11281;52.194;21.006;2022-11-15T03:23:31;26.52;;;13.88;;
22223;SDS011;11281;52.194;21.006;2022-11-15T03:27:57;26.73;;;13.55;;
22223;SDS011;11281;52.194;21.006;2022-11-15T03:32:29;26.35;;;14.82;;
22223;SDS011;11281;52.194;21.006;2022-11-15T03:36:55;28.70;;;13.60;;
22223;SDS011;11281;52.194;21.006;2022-11-15T03:41:37;32.67;;;15.85;;
22223;SDS011;11281;52.194;21.006;2022-11-15T03:46:27;38.45;;;14.95;;
22223;SDS011;11281;52.194;21.006;2022-11-15T03:50:57;31.30;;;13.55;;
22223;SDS011;11281;52.194;21.006;2022-11-15T03:55:20;30.90;;;13.35;;
22223;SDS011;11281;52.194;21.006;2022-11-15T03:59:42;33.75;;;14.68;;
22223;SDS011;11281;52.194;21.006;2022-11-15T04:04:04;29.42;;;13.88;;
22223;SDS011;11281;52.194;21.006;2022-11-15T04:08:26;30.20;;;13.27;;
22223;SDS011;11281;52.194;21.006;2022-11-15T04:12:48;33.20;;;14.48;;
22223;SDS011;11281;52.194;21.006;2022-11-15T04:17:09;28.75;;;12.82;;
22223;SDS011;11281;52.194;21.006;2022-11-15T04:21:31;28.77;;;14.43;;
22223;SDS011;11281;52.194;21.006;2022-11-15T04:26:12;27.95;;;12.75;;
22223;SDS011;11281;52.194;21.006;2022-11-15T04:30:40;36.35;;;14.05;;
22223;SDS011;11281;52.194;21.006;2022-11-15T04:35:01;26.73;;;13.98;;
22223;SDS011;11281;52.194;21.006;2022-11-15T04:39:24;32.00;;;14.38;;
22223;SDS011;11281;52.194;21.006;2022-11-15T04:43:46;30.00;;;13.45;;
22223;SDS011;11281;52.194;21.006;2022-11-15T04:48:08;30.75;;;14.55;;
22223;SDS011;11281;52.194;21.006;2022-11-15T04:52:29;33.10;;;14.70;;
22223;SDS011;11281;52.194;21.006;2022-11-15T04:56:51;39.63;;;16.38;;
22223;SDS011;11281;52.194;21.006;2022-11-15T05:01:13;34.33;;;14.30;;
22223;SDS011;11281;52.194;21.006;2022-11-15T05:05:35;30.15;;;15.38;;
22223;SDS011;11281;52.194;21.006;2022-11-15T05:09:57;25.98;;;13.57;;
22223;SDS011;11281;52.194;21.006;2022-11-15T05:14:19;31.20;;;14.68;;
22223;SDS011;11281;52.194;21.006;2022-11-15T05:18:41;35.53;;;15.40;;
22223;SDS011;11281;52.194;21.006;2022-11-15T05:23:03;26.65;;;13.75;;
22223;SDS011;11281;52.194;21.006;2022-11-15T05:27:24;34.40;;;15.63;;
22223;SDS011;11281;52.194;21.006;2022-11-15T05:31:46;32.67;;;15.23;;
22223;SDS011;11281;52.194;21.006;2022-11-15T05:40:54;33.72;;;15.18;;
22223;SDS011;11281;52.194;21.006;2022-11-15T05:45:16;31.92;;;15.13;;
22223;SDS011;11281;52.194;21.006;2022-11-15T05:49:38;33.42;;;14.43;;
22223;SDS011;11281;52.194;21.006;2022-11-15T05:54:04;33.50;;;14.07;;
22223;SDS011;11281;52.194;21.006;2022-11-15T05:58:26;36.08;;;15.55;;
22223;SDS011;11281;52.194;21.006;2022-11-15T06:02:48;28.55;;;14.20;;
22223;SDS011;11281;52.194;21.006;2022-11-15T06:07:09;32.63;;;14.77;;
22223;SDS011;11281;52.194;21.006;2022-11-15T06:11:31;33.38;;;15.35;;
22223;SDS011;11281;52.194;21.006;2022-11-15T06:15:55;30.75;;;14.40;;
22223;SDS011;11281;52.194;21.006;2022-11-15T06:20:17;34.72;;;14.18;;
22223;SDS011;11281;52.194;21.006;2022-11-15T06:24:39;30.25;;;12.95;;
22223;SDS011;11281;52.194;21.006;2022-11-15T06:29:02;31.95;;;13.57;;
22223;SDS011;11281;52.194;21.006;2022-11-15T06:33:25;31.13;;;13.50;;
22223;SDS011;11281;52.194;21.006;2022-11-15T06:37:47;31.58;;;13.70;;
22223;SDS011;11281;52.194;21.006;2022-11-15T06:42:08;28.67;;;12.55;;
22223;SDS011;11281;52.194;21.006;2022-11-15T06:46:30;31.42;;;14.55;;
22223;SDS011;11281;52.194;21.006;2022-11-15T06:50:52;35.55;;;16.17;;
22223;SDS011;11281;52.194;21.006;2022-11-15T06:55:15;32.60;;;12.90;;
22223;SDS011;11281;52.194;21.006;2022-11-15T06:59:37;26.75;;;12.13;;
22223;SDS011;11281;52.194;21.006;2022-11-15T07:03:59;37.47;;;13.80;;
22223;SDS011;11281;52.194;21.006;2022-11-15T07:08:21;33.80;;;13.32;;
22223;SDS011;11281;52.194;21.006;2022-11-15T07:12:48;35.88;;;14.90;;
22223;SDS011;11281;52.194;21.006;2022-11-15T07:17:10;28.55;;;13.77;;
22223;SDS011;11281;52.194;21.006;2022-11-15T07:21:32;32.88;;;13.93;;
22223;SDS011;11281;52.194;21.006;2022-11-15T07:25:55;33.28;;;14.20;;
22223;SDS011;11281;52.194;21.006;2022-11-15T07:30:19;34.03;;;15.60;;
22223;SDS011;11281;52.194;21.006;2022-11-15T07:34:40;32.58;;;15.07;;
22223;SDS011;11281;52.194;21.006;2022-11-15T07:39:02;32.35;;;13.68;;
22223;SDS011;11281;52.194;21.006;2022-11-15T07:43:24;27.52;;;11.90;;
22223;SDS011;11281;52.194;21.006;2022-11-15T07:47:49;26.33;;;12.95;;
22223;SDS011;11281;52.194;21.006;2022-11-15T07:52:11;25.73;;;11.68;;
22223;SDS011;11281;52.194;21.006;2022-11-15T07:56:33;32.20;;;13.45;;
22223;SDS011;11281;52.194;21.006;2022-11-15T08:00:55;31.90;;;13.10;;
22223;SDS011;11281;52.194;21.006;2022-11-15T08:05:17;27.85;;;14.35;;
22223;SDS011;11281;52.194;21.006;2022-11-15T08:09:38;28.95;;;12.75;;
22223;SDS011;11281;52.194;21.006;2022-11-15T08:14:00;32.97;;;14.18;;
22223;SDS011;11281;52.194;21.006;2022-11-15T08:18:22;29.15;;;13.23;;
22223;SDS011;11281;52.194;21.006;2022-11-15T08:22:44;29.17;;;13.00;;
22223;SDS011;11281;52.194;21.006;2022-11-15T08:27:06;30.73;;;13.38;;
22223;SDS011;11281;52.194;21.006;2022-11-15T08:31:35;29.75;;;13.60;;
22223;SDS011;11281;52.194;21.006;2022-11-15T08:35:58;33.50;;;14.75;;
22223;SDS011;11281;52.194;21.006;2022-11-15T08:40:21;31.60;;;13.48;;
22223;SDS011;11281;52.194;21.006;2022-11-15T08:44:43;28.30;;;13.25;;
22223;SDS011;11281;52.194;21.006;2022-11-15T08:49:05;23.00;;;11.50;;
22223;SDS011;11281;52.194;21.006;2022-11-15T08:53:26;29.30;;;11.32;;
22223;SDS011;11281;52.194;21.006;2022-11-15T08:57:48;25.73;;;11.35;;
22223;SDS011;11281;52.194;21.006;2022-11-15T09:02:11;28.15;;;12.95;;
22223;SDS011;11281;52.194;21.006;2022-11-15T09:06:35;26.45;;;11.43;;
22223;SDS011;11281;52.194;21.006;2022-11-15T09:10:57;29.80;;;13.35;;
22223;SDS011;11281;52.194;21.006;2022-11-15T09:15:18;26.58;;;12.75;;
22223;SDS011;11281;52.194;21.006;2022-11-15T09:19:40;28.63;;;13.57;;
22223;SDS011;11281;52.194;21.006;2022-11-15T09:24:02;35.67;;;12.73;;
22223;SDS011;11281;52.194;21.006;2022-11-15T09:28:25;30.95;;;13.23;;
22223;SDS011;11281;52.194;21.006;2022-11-15T09:32:46;27.63;;;14.18;;
22223;SDS011;11281;52.194;21.006;2022-11-15T09:37:08;26.90;;;12.85;;
22223;SDS011;11281;52.194;21.006;2022-11-15T09:41:56;28.15;;;11.75;;
22223;SDS011;11281;52.194;21.006;2022-11-15T09:46:43;32.60;;;14.27;;
22223;SDS011;11281;52.194;21.006;2022-11-15T09:51:33;27.50;;;12.23;;
22223;SDS011;11281;52.194;21.006;2022-11-15T09:56:18;22.00;;;13.25;;
22223;SDS011;11281;52.194;21.006;2022-11-15T10:00:44;30.98;;;14.45;;
22223;SDS011;11281;52.194;21.006;2022-11-15T10:05:10;30.75;;;13.45;;
22223;SDS011;11281;52.194;21.006;2022-11-15T10:09:45;28.35;;;12.75;;
22223;SDS011;11281;52.194;21.006;2022-11-15T10:14:15;28.08;;;13.13;;
22223;SDS011;11281;52.194;21.006;2022-11-15T10:23:23;25.33;;;12.63;;
22223;SDS011;11281;52.194;21.006;2022-11-15T10:27:47;26.90;;;13.98;;
22223;SDS011;11281;52.194;21.006;2022-11-15T10:32:39;30.27;;;13.95;;
22223;SDS011;11281;52.194;21.006;2022-11-15T10:37:03;31.42;;;13.68;;
22223;SDS011;11281;52.194;21.006;2022-11-15T10:50:27;25.60;;;12.05;;
22223;SDS011;11281;52.194;21.006;2022-11-15T10:59:31;30.33;;;13.82;;
22223;SDS011;11281;52.194;21.006;2022-11-15T11:04:01;27.88;;;12.85;;
22223;SDS011;11281;52.194;21.006;2022-11-15T11:08:24;24.95;;;11.85;;
22223;SDS011;11281;52.194;21.006;2022-11-15T11:12:46;27.27;;;13.27;;
22223;SDS011;11281;52.194;21.006;2022-11-15T11:36:25;28.83;;;12.05;;
22223;SDS011;11281;52.194;21.006;2022-11-15T11:51:03;24.35;;;11.48;;
22223;SDS011;11281;52.194;21.006;2022-11-15T11:55:45;32.72;;;14.18;;
22223;SDS011;11281;52.194;21.006;2022-11-15T12:00:20;31.77;;;13.45;;
22223;SDS011;11281;52.194;21.006;2022-11-15T12:04:50;25.92;;;13.48;;
22223;SDS011;11281;52.194;21.006;2022-11-15T12:09:15;31.50;;;13.02;;
22223;SDS011;11281;52.194;21.006;2022-11-15T12:14:08;28.95;;;12.30;;
22223;SDS011;11281;52.194;21.006;2022-11-15T12:19:04;33.65;;;13.98;;
22223;SDS011;11281;52.194;21.006;2022-11-15T12:23:29;29.85;;;12.05;;
22223;SDS011;11281;52.194;21.006;2022-11-15T12:32:31;32.83;;;14.38;;
22223;SDS011;11281;52.194;21.006;2022-11-15T12:36:57;34.67;;;13.52;;
22223;SDS011;11281;52.194;21.006;2022-11-15T12:41:19;39.65;;;14.43;;
22223;SDS011;11281;52.194;21.006;2022-11-15T12:45:43;27.85;;;13.40;;
22223;SDS011;11281;52.194;21.006;2022-11-15T12:50:11;31.45;;;14.00;;
22223;SDS011;11281;52.194;21.006;2022-11-15T12:59:05;35.57;;;15.87;;
22223;SDS011;11281;52.194;21.006;2022-11-15T13:03:28;32.67;;;13.10;;
22223;SDS011;11281;52.194;21.006;2022-11-15T13:07:57;39.58;;;15.32;;
22223;SDS011;11281;52.194;21.006;2022-11-15T13:16:47;37.70;;;15.57;;
22223;SDS011;11281;52.194;21.006;2022-11-15T13:21:20;35.60;;;14.43;;
22223;SDS011;11281;52.194;21.006;2022-11-15T13:26:06;28.10;;;11.95;;
22223;SDS011;11281;52.194;21.006;2022-11-15T13:30:39;28.35;;;12.15;;
22223;SDS011;11281;52.194;21.006;2022-11-15T13:35:25;33.05;;;13.30;;
22223;SDS011;11281;52.194;21.006;2022-11-15T13:39:49;28.60;;;12.75;;
22223;SDS011;11281;52.194;21.006;2022-11-15T13:44:18;35.55;;;13.27;;
22223;SDS011;11281;52.194;21.006;2022-11-15T13:49:04;26.52;;;12.82;;
22223;SDS011;11281;52.194;21.006;2022-11-15T13:53:32;29.70;;;12.65;;
22223;SDS011;11281;52.194;21.006;2022-11-15T13:57:58;30.27;;;12.02;;
22223;SDS011;11281;52.194;21.006;2022-11-15T14:02:27;29.65;;;12.38;;
22223;SDS011;11281;52.194;21.006;2022-11-15T14:06:54;33.22;;;13.48;;
22223;SDS011;11281;52.194;21.006;2022-11-15T14:11:19;30.60;;;12.77;;
22223;SDS011;11281;52.194;21.006;2022-11-15T14:15:41;29.08;;;12.90;;
22223;SDS011;11281;52.194;21.006;2022-11-15T14:20:19;32.00;;;12.75;;
22223;SDS011;11281;52.194;21.006;2022-11-15T14:24:50;31.95;;;13.35;;
22223;SDS011;11281;52.194;21.006;2022-11-15T14:29:28;29.20;;;13.38;;
22223;SDS011;11281;52.194;21.006;2022-11-15T14:33:51;34.08;;;12.00;;
22223;SDS011;11281;52.194;21.006;2022-11-15T14:38:12;36.25;;;13.02;;
22223;SDS011;11281;52.194;21.006;2022-11-15T14:42:34;38.97;;;14.68;;
22223;SDS011;11281;52.194;21.006;2022-11-15T14:46:56;28.35;;;12.55;;
22223;SDS011;11281;52.194;21.006;2022-11-15T14:51:18;29.55;;;11.80;;
22223;SDS011;11281;52.194;21.006;2022-11-15T14:55:40;24.40;;;11.07;;
22223;SDS011;11281;52.194;21.006;2022-11-15T15:00:02;28.15;;;11.23;;
22223;SDS011;11281;52.194;21.006;2022-11-15T15:04:25;26.10;;;10.77;;
22223;SDS011;11281;52.194;21.006;2022-11-15T15:08:47;27.75;;;12.00;;
22223;SDS011;11281;52.194;21.006;2022-11-15T15:13:21;27.23;;;12.23;;
22223;SDS011;11281;52.194;21.006;2022-11-15T15:17:44;26.92;;;11.18;;
22223;SDS011;11281;52.194;21.006;2022-11-15T15:22:09;30.73;;;12.20;;
22223;SDS011;11281;52.194;21.006;2022-11-15T15:26:40;33.83;;;13.63;;
22223;SDS011;11281;52.194;21.006;2022-11-15T15:31:02;28.88;;;12.15;;
22223;SDS011;11281;52.194;21.006;2022-11-15T15:35:24;23.15;;;10.13;;
22223;SDS011;11281;52.194;21.006;2022-11-15T15:39:52;18.57;;;9.50;;
22223;SDS011;11281;52.194;21.006;2022-11-15T15:44:15;24.75;;;10.30;;
22223;SDS011;11281;52.194;21.006;2022-11-15T15:48:36;27.02;;;11.50;;
22223;SDS011;11281;52.194;21.006;2022-11-15T15:53:00;22.58;;;10.15;;
22223;SDS011;11281;52.194;21.006;2022-11-15T15:57:25;28.25;;;11.38;;
22223;SDS011;11281;52.194;21.006;2022-11-15T16:01:46;26.05;;;10.65;;
22223;SDS011;11281;52.194;21.006;2022-11-15T16:10:56;30.00;;;11.02;;
22223;SDS011;11281;52.194;21.006;2022-11-15T16:15:18;28.80;;;12.43;;
22223;SDS011;11281;52.194;21.006;2022-11-15T16:19:41;29.45;;;14.25;;
22223;SDS011;11281;52.194;21.006;2022-11-15T16:24:02;27.10;;;10.48;;
22223;SDS011;11281;52.194;21.006;2022-11-15T16:28:26;27.77;;;11.95;;
22223;SDS011;11281;52.194;21.006;2022-11-15T16:32:53;29.83;;;13.05;;
22223;SDS011;11281;52.194;21.006;2022-11-15T16:37:21;27.27;;;12.82;;
22223;SDS011;11281;52.194;21.006;2022-11-15T16:41:44;30.42;;;11.82;;
22223;SDS011;11281;52.194;21.006;2022-11-15T16:46:14;33.75;;;11.35;;
22223;SDS011;11281;52.194;21.006;2022-11-15T16:50:42;35.38;;;12.48;;
22223;SDS011;11281;52.194;21.006;2022-11-15T16:55:04;38.08;;;15.63;;
22223;SDS011;11281;52.194;21.006;2022-11-15T16:59:26;41.72;;;14.15;;
22223;SDS011;11281;52.194;21.006;2022-11-15T17:03:48;27.80;;;11.18;;
22223;SDS011;11281;52.194;21.006;2022-11-15T17:08:09;34.00;;;13.57;;
22223;SDS011;11281;52.194;21.006;2022-11-15T17:12:32;30.45;;;12.40;;
22223;SDS011;11281;52.194;21.006;2022-11-15T17:16:55;28.63;;;14.23;;
22223;SDS011;11281;52.194;21.006;2022-11-15T17:21:19;34.75;;;15.50;;
22223;SDS011;11281;52.194;21.006;2022-11-15T17:25:42;24.95;;;11.07;;
22223;SDS011;11281;52.194;21.006;2022-11-15T17:30:04;55.38;;;18.83;;
22223;SDS011;11281;52.194;21.006;2022-11-15T17:34:27;54.17;;;20.88;;
22223;SDS011;11281;52.194;21.006;2022-11-15T17:38:49;35.92;;;14.13;;
22223;SDS011;11281;52.194;21.006;2022-11-15T17:43:12;42.03;;;15.88;;
22223;SDS011;11281;52.194;21.006;2022-11-15T17:47:34;33.45;;;15.10;;
22223;SDS011;11281;52.194;21.006;2022-11-15T17:51:56;36.28;;;15.13;;
22223;SDS011;11281;52.194;21.006;2022-11-15T17:56:18;30.00;;;11.32;;
22223;SDS011;11281;52.194;21.006;2022-11-15T18:00:43;28.65;;;12.15;;
22223;SDS011;11281;52.194;21.006;2022-11-15T18:05:06;25.00;;;11.40;;
22223;SDS011;11281;52.194;21.006;2022-11-15T18:09:28;30.55;;;10.50;;
22223;SDS011;11281;52.194;21.006;2022-11-15T18:13:54;37.95;;;15.27;;
22223;SDS011;11281;52.194;21.006;2022-11-15T18:18:18;25.15;;;10.38;;
22223;SDS011;11281;52.194;21.006;2022-11-15T18:22:40;24.95;;;10.55;;
22223;SDS011;11281;52.194;21.006;2022-11-15T18:27:02;31.50;;;13.00;;
22223;SDS011;11281;52.194;21.006;2022-11-15T18:31:26;32.97;;;14.75;;
22223;SDS011;11281;52.194;21.006;2022-11-15T18:35:57;26.30;;;9.98;;
22223;SDS011;11281;52.194;21.006;2022-11-15T18:40:23;19.80;;;8.93;;
22223;SDS011;11281;52.194;21.006;2022-11-15T18:44:45;16.75;;;8.70;;
22223;SDS011;11281;52.194;21.006;2022-11-15T18:49:07;16.02;;;6.90;;
22223;SDS011;11281;52.194;21.006;2022-11-15T18:53:32;17.70;;;7.10;;
22223;SDS011;11281;52.194;21.006;2022-11-15T18:57:55;18.15;;;8.35;;
22223;SDS011;11281;52.194;21.006;2022-11-15T19:02:17;27.90;;;12.55;;
22223;SDS011;11281;52.194;21.006;2022-11-15T19:06:39;24.90;;;11.40;;
22223;SDS011;11281;52.194;21.006;2022-11-15T19:15:25;31.63;;;11.85;;
22223;SDS011;11281;52.194;21.006;2022-11-15T19:19:47;20.95;;;8.80;;
22223;SDS011;11281;52.194;21.006;2022-11-15T19:24:08;18.13;;;9.52;;
22223;SDS011;11281;52.194;21.006;2022-11-15T19:28:31;14.80;;;7.13;;
22223;SDS011;11281;52.194;21.006;2022-11-15T19:32:53;15.63;;;7.72;;
22223;SDS011;11281;52.194;21.006;2022-11-15T19:37:15;21.42;;;8.45;;
22223;SDS011;11281;52.194;21.006;2022-11-15T19:41:37;29.17;;;10.35;;
22223;SDS011;11281;52.194;21.006;2022-11-15T19:46:03;16.52;;;9.50;;
22223;SDS011;11281;52.194;21.006;2022-11-15T19:50:26;19.15;;;9.25;;
22223;SDS011;11281;52.194;21.006;2022-11-15T19:54:48;12.75;;;7.40;;
22223;SDS011;11281;52.194;21.006;2022-11-15T19:59:10;19.52;;;8.80;;
22223;SDS011;11281;52.194;21.006;2022-11-15T20:03:33;17.02;;;8.40;;
22223;SDS011;11281;52.194;21.006;2022-11-15T20:07:56;14.77;;;7.72;;
22223;SDS011;11281;52.194;21.006;2022-11-15T20:12:17;17.90;;;8.20;;
22223;SDS011;11281;52.194;21.006;2022-11-15T20:16:39;26.85;;;9.88;;
22223;SDS011;11281;52.194;21.006;2022-11-15T20:21:02;20.30;;;8.32;;
22223;SDS011;11281;52.194;21.006;2022-11-15T20:25:26;17.13;;;7.55;;
22223;SDS011;11281;52.194;21.006;2022-11-15T20:29:48;19.13;;;7.72;;
22223;SDS011;11281;52.194;21.006;2022-11-15T20:34:11;20.45;;;8.85;;
22223;SDS011;11281;52.194;21.006;2022-11-15T20:38:33;32.28;;;13.25;;
22223;SDS011;11281;52.194;21.006;2022-11-15T20:42:55;20.92;;;9.45;;
22223;SDS011;11281;52.194;21.006;2022-11-15T20:47:16;20.60;;;8.35;;
22223;SDS011;11281;52.194;21.006;2022-11-15T20:51:38;26.58;;;11.88;;
22223;SDS011;11281;52.194;21.006;2022-11-15T20:56:04;24.77;;;11.15;;
22223;SDS011;11281;52.194;21.006;2022-11-15T21:00:32;21.33;;;11.02;;
22223;SDS011;11281;52.194;21.006;2022-11-15T21:04:54;32.15;;;12.00;;
22223;SDS011;11281;52.194;21.006;2022-11-15T21:09:16;21.35;;;11.45;;
22223;SDS011;11281;52.194;21.006;2022-11-15T21:13:56;31.02;;;12.60;;
22223;SDS011;11281;52.194;21.006;2022-11-15T21:18:17;29.77;;;12.55;;
22223;SDS011;11281;52.194;21.006;2022-11-15T21:22:39;24.17;;;9.60;;
22223;SDS011;11281;52.194;21.006;2022-11-15T21:27:01;22.48;;;9.30;;
22223;SDS011;11281;52.194;21.006;2022-11-15T21:31:23;26.45;;;9.85;;
22223;SDS011;11281;52.194;21.006;2022-11-15T21:35:45;22.48;;;10.52;;
22223;SDS011;11281;52.194;21.006;2022-11-15T21:40:07;22.55;;;10.93;;
22223;SDS011;11281;52.194;21.006;2022-11-15T21:44:29;21.88;;;9.38;;
22223;SDS011;11281;52.194;21.006;2022-11-15T21:48:51;25.63;;;11.07;;
22223;SDS011;11281;52.194;21.006;2022-11-15T21:53:13;19.77;;;8.90;;
22223;SDS011;11281;52.194;21.006;2022-11-15T21:57:35;28.33;;;9.07;;
22223;SDS011;11281;52.194;21.006;2022-11-15T22:01:56;24.55;;;9.10;;
22223;SDS011;11281;52.194;21.006;2022-11-15T22:06:36;22.00;;;10.30;;
22223;SDS011;11281;52.194;21.006;2022-11-15T22:10:58;19.27;;;9.15;;
22223;SDS011;11281;52.194;21.006;2022-11-15T22:15:20;19.55;;;9.95;;
22223;SDS011;11281;52.194;21.006;2022-11-15T22:19:42;23.88;;;9.90;;
22223;SDS011;11281;52.194;21.006;2022-11-15T22:24:04;19.02;;;9.43;;
22223;SDS011;11281;52.194;21.006;2022-11-15T22:28:26;18.23;;;9.48;;
22223;SDS011;11281;52.194;21.006;2022-11-15T22:32:50;22.23;;;9.52;;
22223;SDS011;11281;52.194;21.006;2022-11-15T22:37:11;17.17;;;8.20;;
22223;SDS011;11281;52.194;21.006;2022-11-15T22:41:33;20.10;;;8.80;;
22223;SDS011;11281;52.194;21.006;2022-11-15T22:45:58;15.60;;;8.65;;
22223;SDS011;11281;52.194;21.006;2022-11-15T22:50:22;17.25;;;8.68;;
22223;SDS011;11281;52.194;21.006;2022-11-15T22:54:44;19.23;;;8.48;;
22223;SDS011;11281;52.194;21.006;2022-11-15T22:59:05;22.05;;;8.75;;
22223;SDS011;11281;52.194;21.006;2022-11-15T23:03:27;17.25;;;8.35;;
22223;SDS011;11281;52.194;21.006;2022-11-15T23:07:51;18.20;;;7.95;;
22223;SDS011;11281;52.194;21.006;2022-11-15T23:12:13;22.83;;;9.70;;
22223;SDS011;11281;52.194;21.006;2022-11-15T23:16:53;20.60;;;9.02;;
22223;SDS011;11281;52.194;21.006;2022-11-15T23:21:20;18.08;;;9.50;;
22223;SDS011;11281;52.194;21.006;2022-11-15T23:26:12;18.10;;;8.98;;
22223;SDS011;11281;52.194;21.006;2022-11-15T23:30:34;19.77;;;9.18;;
22223;SDS011;11281;52.194;21.006;2022-11-15T23:35:16;15.73;;;7.25;;
22223;SDS011;11281;52.194;21.006;2022-11-15T23:39:38;20.08;;;8.27;;
22223;SDS011;11281;52.194;21.006;2022-11-15T23:43:59;17.42;;;7.80;;
22223;SDS011;11281;52.194;21.006;2022-11-15T23:48:21;19.00;;;9.43;;
22223;SDS011;11281;52.194;21.006;2022-11-15T23:52:43;14.50;;;7.82;;
22223;SDS011;11281;52.194;21.006;2022-11-15T23:57:05;16.05;;;7.93;;
